createdAt,value
2016-05-24T12:27:13.177Z,-38.8
2016-05-24T12:27:23.161Z,-38.8
2016-05-24T12:27:33.146Z,-38.8
2016-05-24T12:27:43.148Z,-38.8
2016-05-24T12:27:53.132Z,-38.8
2016-05-24T12:28:03.116Z,-38.8
2016-05-24T12:28:13.101Z,-38.8
2016-05-24T12:28:23.085Z,-38.8
2016-05-24T12:28:33.070Z,-38.8
2016-05-24T12:28:43.073Z,-38.8
2016-05-24T12:28:53.073Z,-38.8
2016-05-24T12:29:03.041Z,-38.8
2016-05-24T12:29:13.151Z,-38.8
2016-05-24T12:29:23.135Z,-38.8
2016-05-24T12:29:33.135Z,-38.8
2016-05-24T12:29:43.122Z,-38.8
2016-05-24T12:29:53.107Z,-38.8
2016-05-24T12:30:03.435Z,-38.8
2016-05-24T12:30:13.091Z,-38.8
2016-05-24T12:30:22.919Z,-38.8
2016-05-24T12:30:33.076Z,-38.8
2016-05-24T12:30:43.079Z,-38.8
2016-05-24T12:30:53.047Z,-38.8
2016-05-24T12:31:03.032Z,-38.8
2016-05-24T12:31:13.032Z,-38.8
2016-05-24T12:31:23.016Z,-38.8
2016-05-24T12:31:33.000Z,-38.8
2016-05-24T12:31:42.847Z,-38.8
2016-05-24T12:31:52.988Z,-38.8
2016-05-24T12:32:02.972Z,-38.8
2016-05-24T12:32:12.816Z,-38.8
2016-05-24T12:32:23.050Z,-38.8
2016-05-24T12:32:32.941Z,-38.8
2016-05-24T12:32:42.943Z,-38.8
2016-05-24T12:32:52.771Z,-38.8
2016-05-24T12:33:02.912Z,-38.8
2016-05-24T12:33:12.818Z,-38.8
2016-05-24T12:33:22.912Z,-38.8
2016-05-24T12:33:32.927Z,-38.8
2016-05-24T12:33:42.868Z,-38.8
2016-05-24T12:33:52.868Z,-38.8
2016-05-24T12:34:02.852Z,-38.8
2016-05-24T12:34:12.852Z,-38.8
2016-05-24T12:34:22.899Z,-38.8
2016-05-24T12:34:32.680Z,-38.8
2016-05-24T12:34:42.824Z,-38.8
2016-05-24T12:34:52.652Z,-38.8
2016-05-24T12:35:02.652Z,-38.8
2016-05-24T12:35:12.793Z,-38.8
2016-05-24T12:35:22.777Z,-38.8
2016-05-24T12:35:32.793Z,-38.8
2016-05-24T12:35:42.608Z,-38.8
2016-05-24T12:35:52.764Z,-38.8
2016-05-24T12:36:02.749Z,-38.8
2016-05-24T12:36:12.749Z,-38.8
2016-05-24T12:36:22.733Z,-38.8
2016-05-24T12:36:32.577Z,-38.8
2016-05-24T12:36:42.704Z,-38.8
2016-05-24T12:36:52.548Z,-38.8
2016-05-24T12:37:02.704Z,-38.8
2016-05-24T12:37:12.688Z,-38.8
2016-05-24T12:37:22.516Z,-38.8
2016-05-24T12:37:32.516Z,-38.8
2016-05-24T12:37:42.660Z,-38.8
2016-05-24T12:37:52.644Z,-38.8
2016-05-24T12:38:02.644Z,-38.8
2016-05-24T12:38:12.629Z,-38.8
2016-05-24T12:38:22.629Z,-38.8
2016-05-24T12:38:32.613Z,-38.8
2016-05-24T12:38:42.600Z,-38.8
2016-05-24T12:38:52.646Z,-38.8
2016-05-24T12:39:02.584Z,-38.8
2016-05-24T12:39:12.568Z,-38.8
2016-05-24T12:39:22.412Z,-38.8
2016-05-24T12:39:32.553Z,-38.8
2016-05-24T12:39:42.540Z,-38.8
2016-05-24T12:39:52.540Z,-38.8
2016-05-24T12:40:02.368Z,-38.8
2016-05-24T12:40:12.368Z,-38.8
2016-05-24T12:40:22.509Z,-38.8
2016-05-24T12:40:32.493Z,-38.8
2016-05-24T12:40:42.496Z,-38.8
2016-05-24T12:40:52.481Z,-38.8
2016-05-24T12:41:02.465Z,-38.8
2016-05-24T12:41:12.465Z,-38.8
2016-05-24T12:41:22.449Z,-38.8
2016-05-24T12:41:32.449Z,-38.8
2016-05-24T12:41:42.451Z,-38.8
2016-05-24T12:41:52.420Z,-38.8
2016-05-24T12:42:02.420Z,-38.8
2016-05-24T12:42:12.404Z,-38.8
2016-05-24T12:42:22.404Z,-38.8
2016-05-24T12:42:32.248Z,-38.8
2016-05-24T12:42:42.376Z,-38.8
2016-05-24T12:42:52.314Z,-38.8
2016-05-24T12:43:02.361Z,-38.8
2016-05-24T12:43:12.220Z,-38.8
2016-05-24T12:43:22.345Z,-38.8
2016-05-24T12:43:32.329Z,-38.8
2016-05-24T12:43:42.331Z,-38.8
2016-05-24T12:43:52.394Z,-38.8
2016-05-24T12:44:02.316Z,-38.8
2016-05-24T12:44:13.191Z,-38.8
2016-05-24T12:44:22.300Z,-38.8
2016-05-24T12:44:32.284Z,-38.8
2016-05-24T12:44:43.397Z,-38.8
2016-05-24T12:44:52.272Z,-38.8
2016-05-24T12:45:02.319Z,-38.8
2016-05-24T12:45:12.350Z,-38.8
2016-05-24T12:45:22.991Z,-38.8
2016-05-24T12:45:32.709Z,-38.8
2016-05-24T12:45:42.245Z,-38.8
2016-05-24T12:45:52.213Z,-38.8
2016-05-24T12:46:02.213Z,-38.8
2016-05-24T12:46:12.635Z,-38.8
2016-05-24T12:46:19.745Z,-38.8
2016-05-24T12:46:29.151Z,-38.8
2016-05-24T12:46:39.731Z,-38.8
2016-05-24T12:46:49.747Z,-38.8
2016-05-24T12:46:59.637Z,-38.8
2016-05-24T12:47:09.715Z,-38.8
2016-05-24T12:47:19.543Z,-38.8
2016-05-24T12:47:29.700Z,-38.8
2016-05-24T12:47:39.686Z,-38.8
2016-05-24T12:47:49.686Z,-38.8
2016-05-24T12:47:59.577Z,-38.8
2016-05-24T12:48:09.655Z,-38.8
2016-05-24T12:48:19.655Z,-38.8
2016-05-24T12:48:29.358Z,-38.8
2016-05-24T12:48:40.158Z,-38.8
2016-05-24T12:48:50.252Z,-38.8
2016-05-24T12:49:00.220Z,-38.8
2016-05-24T12:49:11.330Z,-38.8
2016-05-24T12:49:20.220Z,-38.8
2016-05-24T12:49:30.220Z,-38.8
2016-05-24T12:49:40.223Z,-38.8
2016-05-24T12:49:50.755Z,-38.8
2016-05-24T12:50:00.208Z,-38.8
2016-05-24T12:50:10.192Z,-38.8
2016-05-24T12:50:20.255Z,-38.8
2016-05-24T12:50:30.161Z,-38.8
2016-05-24T12:50:40.211Z,-38.8
2016-05-24T12:50:50.164Z,-38.8
2016-05-24T12:51:00.226Z,-38.8
2016-05-24T12:51:10.133Z,-38.8
2016-05-24T12:51:20.148Z,-38.8
2016-05-24T12:51:29.961Z,-38.8
2016-05-24T12:51:40.120Z,-38.8
2016-05-24T12:51:49.948Z,-38.8
2016-05-24T12:52:00.089Z,-38.8
2016-05-24T12:52:09.948Z,-38.8
2016-05-24T12:52:20.073Z,-38.8
2016-05-24T12:52:30.104Z,-38.8
2016-05-24T12:52:40.059Z,-38.8
2016-05-24T12:52:50.044Z,-38.8
2016-05-24T12:53:00.044Z,-38.8
2016-05-24T12:53:10.044Z,-38.8
2016-05-24T12:53:20.028Z,-38.8
2016-05-24T12:53:30.013Z,-38.8
2016-05-24T12:53:40.000Z,-38.8
2016-05-24T12:53:50.016Z,-38.8
2016-05-24T12:53:59.984Z,-38.8
2016-05-24T12:54:09.984Z,-38.8
2016-05-24T12:54:19.969Z,-38.8
2016-05-24T12:54:29.969Z,-38.8
2016-05-24T12:54:39.956Z,-38.8
2016-05-24T12:54:50.394Z,-38.8
2016-05-24T12:54:59.940Z,-38.8
2016-05-24T12:55:09.940Z,-38.8
2016-05-24T12:55:19.925Z,-38.8
2016-05-24T12:55:29.909Z,-38.8
2016-05-24T12:55:39.911Z,-38.8
2016-05-24T12:55:49.739Z,-38.8
2016-05-24T12:55:59.911Z,-38.8
2016-05-24T12:56:09.896Z,-38.8
2016-05-24T12:56:19.974Z,-38.8
2016-05-24T12:56:29.958Z,-38.8
2016-05-24T12:56:39.852Z,-38.8
2016-05-24T12:56:49.852Z,-38.8
2016-05-24T12:56:59.836Z,-38.8
2016-05-24T12:57:09.836Z,-38.8
2016-05-24T12:57:19.836Z,-38.8
2016-05-24T12:57:29.805Z,-38.8
2016-05-24T12:57:39.822Z,-38.8
2016-05-24T12:57:49.807Z,-38.8
2016-05-24T12:57:59.791Z,-38.8
2016-05-24T12:58:09.791Z,-38.8
2016-05-24T12:58:19.776Z,-38.8
2016-05-24T12:58:29.760Z,-38.8
2016-05-24T12:58:39.763Z,-38.8
2016-05-24T12:58:49.747Z,-38.8
2016-05-24T12:58:59.763Z,-38.8
2016-05-24T12:59:10.857Z,-38.8
2016-05-24T12:59:19.716Z,-38.8
2016-05-24T12:59:29.716Z,-38.8
2016-05-24T12:59:39.719Z,-38.8
2016-05-24T12:59:49.703Z,-38.8
2016-05-24T12:59:59.547Z,-38.8
2016-05-24T13:00:09.766Z,-38.8
2016-05-24T13:00:19.672Z,-38.8
2016-05-24T13:00:29.657Z,-38.8
2016-05-24T13:00:40.049Z,-38.8
2016-05-24T13:00:49.534Z,-38.8
2016-05-24T13:01:00.221Z,-38.8
2016-05-24T13:01:10.221Z,-38.8
2016-05-24T13:01:19.612Z,-38.8
2016-05-24T13:01:29.659Z,-38.8
2016-05-24T13:01:39.662Z,-38.8
2016-05-24T13:01:49.708Z,-38.8
2016-05-24T13:01:59.599Z,-38.8
2016-05-24T13:02:09.427Z,-38.8
2016-05-24T13:02:19.568Z,-38.8
2016-05-24T13:02:29.552Z,-38.8
2016-05-24T13:02:39.571Z,-38.8
2016-05-24T13:02:49.555Z,-38.8
2016-05-24T13:02:59.540Z,-38.8
2016-05-24T13:03:09.524Z,-38.8
2016-05-24T13:03:19.352Z,-38.8
2016-05-24T13:03:29.508Z,-38.8
2016-05-24T13:03:39.495Z,-38.8
2016-05-24T13:03:49.338Z,-38.8
2016-05-24T13:03:59.479Z,-38.8
2016-05-24T13:04:11.807Z,-38.8
2016-05-24T13:04:19.463Z,-38.8
2016-05-24T13:04:29.448Z,-38.8
2016-05-24T13:04:39.435Z,-38.8
2016-05-24T13:04:49.388Z,-38.8
2016-05-24T14:02:05.433Z,24.6
2016-05-24T14:02:15.261Z,24.7
2016-05-24T14:02:25.417Z,24.6
2016-05-24T14:02:35.402Z,24.5
2016-05-24T14:02:54.966Z,24.4
2016-05-24T14:03:54.171Z,24.1
2016-05-24T14:03:59.328Z,24.1
2016-05-24T14:04:09.484Z,24.1
2016-05-24T14:04:19.453Z,24
2016-05-24T14:04:29.453Z,24
2016-05-24T14:04:39.441Z,24.2
2016-05-24T14:04:49.425Z,24
2016-05-24T14:04:59.425Z,24
2016-05-24T14:06:01.475Z,24
2016-05-24T14:06:06.631Z,24.2
2016-05-24T14:06:16.772Z,24.3
2016-05-24T14:06:26.756Z,24.2
2016-05-24T14:06:36.741Z,24.4
2016-05-24T14:06:46.743Z,24.3
2016-05-24T14:06:56.727Z,24.4
2016-05-24T14:07:06.712Z,24.5
2016-05-24T14:07:16.712Z,24.5
2016-05-24T14:07:26.696Z,24.6
2016-05-24T14:07:36.680Z,24.6
2016-05-24T14:07:46.683Z,24.7
2016-05-24T14:07:56.668Z,24.7
2016-05-24T14:08:06.683Z,24.7
2016-05-24T14:08:16.683Z,24.8
2016-05-24T14:08:26.636Z,24.8
2016-05-24T14:08:36.636Z,24.8
2016-05-24T14:08:46.467Z,24.8
2016-05-24T14:08:56.607Z,25
2016-05-24T14:09:06.638Z,25
2016-05-24T14:09:16.592Z,25
2016-05-24T14:09:26.576Z,25
2016-05-24T14:09:36.560Z,25.1
2016-05-24T14:09:46.563Z,25
2016-05-24T14:09:56.548Z,25
2016-05-24T14:10:06.626Z,24.9
2016-05-24T14:10:16.532Z,24.8
2016-05-24T14:10:26.516Z,24.8
2016-05-24T14:10:36.360Z,24.8
2016-05-24T14:10:46.348Z,24.7
2016-05-24T14:10:56.504Z,24.7
2016-05-24T14:11:06.473Z,24.6
2016-05-24T14:11:16.504Z,24.6
2016-05-24T14:11:26.457Z,24.8
2016-05-24T14:14:46.404Z,25
2016-05-24T14:14:56.389Z,24.9
2016-05-24T14:15:06.233Z,25
2016-05-24T14:15:16.467Z,25.2
2016-05-24T14:15:26.217Z,25.3
2016-05-24T14:15:36.373Z,25.5
2016-05-24T14:15:46.611Z,25.5
2016-05-24T14:15:56.970Z,25.6
2016-05-24T14:16:06.392Z,25.6
2016-05-24T14:16:16.314Z,26.3
2016-05-24T14:16:26.329Z,27.1
2016-05-24T14:16:36.298Z,27.1
2016-05-24T14:16:46.301Z,27.2
2016-05-24T14:16:56.270Z,27.3
2016-05-24T14:17:06.270Z,27.1
2016-05-24T14:17:16.254Z,27.1
2016-05-24T14:17:26.254Z,27.1
2016-05-24T14:17:36.239Z,27.1
2016-05-24T14:17:46.242Z,27.1
2016-05-24T14:17:56.226Z,27.1
2016-05-24T14:18:06.210Z,27.2
2016-05-24T14:18:16.210Z,27.4
2016-05-24T14:18:26.195Z,27.5
2016-05-24T14:18:36.023Z,27.5
2016-05-24T14:18:46.181Z,27.4
2016-05-24T14:18:56.165Z,27.2
2016-05-24T14:19:06.150Z,27.1
2016-05-24T14:19:16.150Z,27
2016-05-24T14:19:26.134Z,26.8
2016-05-24T14:19:36.119Z,26.6
2016-05-24T14:19:46.122Z,26.3
2016-05-24T14:19:56.106Z,26
2016-05-24T14:20:06.106Z,25.8
2016-05-24T14:20:16.090Z,25.6
2016-05-24T14:20:26.075Z,25.4
2016-05-24T14:20:35.918Z,25.1
2016-05-24T14:20:46.062Z,25
2016-05-24T14:20:56.046Z,24.7
2016-05-24T14:21:06.046Z,24.5
2016-05-24T14:21:16.031Z,24.2
2016-05-24T14:21:26.015Z,24.1
2016-05-24T14:21:36.015Z,23.9
2016-05-24T14:21:46.003Z,23.9
2016-05-24T14:21:55.846Z,23.6
2016-05-24T14:22:05.987Z,23.5
2016-05-24T14:22:15.971Z,23.3
2016-05-24T14:22:25.956Z,23.1
2016-05-24T14:22:35.956Z,23
2016-05-24T14:22:45.942Z,22.9
2016-05-24T14:22:55.926Z,22.7
2016-05-24T14:23:05.926Z,22.6
2016-05-24T14:23:15.926Z,22.3
2016-05-24T14:23:25.895Z,22
2016-05-24T14:23:35.895Z,21.9
2016-05-24T14:23:45.883Z,21.9
2016-05-24T14:23:55.867Z,21.7
2016-05-24T14:24:05.867Z,21.6
2016-05-24T14:24:15.851Z,21.3
2016-05-24T14:24:25.867Z,21.1
2016-05-24T14:24:35.867Z,21
2016-05-24T14:24:45.823Z,20.9
2016-05-24T14:24:55.823Z,20.8
2016-05-24T14:25:05.807Z,20.9
2016-05-24T14:25:15.823Z,20.7
2016-05-24T14:25:25.792Z,20.7
2016-05-24T14:25:35.776Z,20.7
2016-05-24T14:25:45.778Z,20.6
2016-05-24T14:25:55.747Z,20.3
2016-05-24T14:26:05.591Z,20.3
2016-05-24T14:26:15.731Z,20.2
2016-05-24T14:26:25.716Z,20.1
2016-05-24T14:26:35.559Z,19.9
2016-05-24T14:26:45.703Z,19.8
2016-05-24T14:26:55.687Z,19.7
2016-05-24T14:27:05.687Z,19.6
2016-05-24T14:27:15.672Z,19.4
2016-05-24T14:27:25.656Z,19.3
2016-05-24T14:27:35.656Z,19.3
2016-05-24T14:27:45.644Z,19.3
2016-05-24T14:27:55.628Z,19.2
2016-05-24T14:28:05.628Z,19.1
2016-05-24T14:28:15.612Z,19
2016-05-24T14:28:25.597Z,18.9
2016-05-24T14:28:35.675Z,19
2016-05-24T14:28:45.583Z,18.8
2016-05-24T14:28:55.567Z,18.8
2016-05-24T14:29:05.552Z,18.7
2016-05-24T14:29:15.536Z,18.7
2016-05-24T14:29:25.536Z,18.7
2016-05-24T14:29:35.364Z,18.6
2016-05-24T14:29:45.539Z,18.5
2016-05-24T14:29:55.352Z,18.6
2016-05-24T14:30:05.899Z,18.4
2016-05-24T14:30:16.711Z,18.4
2016-05-24T14:30:25.320Z,18.4
2016-05-24T14:30:35.774Z,18.3
2016-05-24T14:30:46.010Z,18.2
2016-05-24T14:30:55.291Z,18.2
2016-05-24T14:31:05.432Z,18.2
2016-05-24T14:31:15.494Z,18.2
2016-05-24T14:31:25.401Z,18.1
2016-05-24T14:31:35.401Z,18
2016-05-24T14:31:45.388Z,18.2
2016-05-24T14:31:55.372Z,18.2
2016-05-24T14:32:05.372Z,18
2016-05-24T14:32:15.357Z,18.1
2016-05-24T14:32:25.341Z,18.1
2016-05-24T14:32:35.325Z,18
2016-05-24T14:32:45.172Z,18
2016-05-24T14:32:55.313Z,18.1
2016-05-24T14:33:05.297Z,18.2
2016-05-24T14:33:15.141Z,18
2016-05-24T14:33:25.282Z,18.1
2016-05-24T14:33:35.282Z,18.2
2016-05-24T14:33:45.252Z,18.1
2016-05-24T14:33:55.252Z,18.1
2016-05-24T14:34:05.080Z,18.1
2016-05-24T14:34:15.237Z,18
2016-05-24T14:34:25.221Z,18
2016-05-24T14:34:35.205Z,18
2016-05-24T14:34:45.209Z,18.2
2016-05-24T14:34:55.178Z,18
2016-05-24T14:35:05.163Z,17.9
2016-05-24T14:35:15.163Z,17.9
2016-05-24T14:35:25.147Z,17.9
2016-05-24T14:35:35.131Z,18.1
2016-05-24T14:35:44.977Z,18.1
2016-05-24T14:35:55.118Z,18.2
2016-05-24T14:36:05.118Z,18.2
2016-05-24T14:36:14.946Z,18.2
2016-05-24T14:36:25.086Z,18.5
2016-05-24T14:36:34.915Z,18
2016-05-24T14:36:45.073Z,17.9
2016-05-24T14:36:55.073Z,18
2016-05-24T14:37:05.042Z,17.9
2016-05-24T14:37:15.026Z,18.1
2016-05-24T14:37:25.026Z,18
2016-05-24T14:37:35.026Z,17.9
2016-05-24T14:37:45.014Z,17.8
2016-05-24T14:37:54.983Z,17.8
2016-05-24T14:38:04.983Z,17.7
2016-05-24T14:38:14.811Z,17.6
2016-05-24T14:38:24.952Z,17.5
2016-05-24T14:38:34.936Z,17.5
2016-05-24T14:38:44.938Z,17.5
2016-05-24T14:38:54.938Z,17.5
2016-05-24T14:39:04.907Z,17.4
2016-05-24T14:39:14.907Z,17.5
2016-05-24T14:39:24.891Z,17.5
2016-05-24T14:39:34.876Z,17.3
2016-05-24T14:39:44.721Z,17.5
2016-05-24T14:39:54.878Z,17.5
2016-05-24T14:40:04.846Z,17.6
2016-05-24T14:40:14.690Z,17.7
2016-05-24T14:40:24.815Z,17.6
2016-05-24T14:40:34.831Z,17.3
2016-05-24T14:40:44.804Z,17.4
2016-05-24T14:40:54.804Z,17.3
2016-05-24T14:41:04.788Z,17.3
2016-05-24T14:41:14.772Z,17.4
2016-05-24T14:41:24.600Z,17.3
2016-05-24T14:41:34.616Z,17.2
2016-05-24T14:41:44.743Z,17.3
2016-05-24T14:41:54.727Z,17.3
2016-05-24T14:42:04.727Z,17.2
2016-05-24T14:42:14.712Z,17.4
2016-05-24T14:42:24.696Z,17.2
2016-05-24T14:42:34.681Z,17.3
2016-05-24T14:42:44.684Z,17.3
2016-05-24T14:42:54.668Z,17.3
2016-05-24T14:43:04.652Z,17.3
2016-05-24T14:43:14.637Z,17.4
2016-05-24T14:43:24.621Z,17.4
2016-05-24T14:43:34.621Z,17.3
2016-05-24T14:43:44.452Z,17.4
2016-05-24T14:43:54.593Z,17.5
2016-05-24T14:44:04.593Z,17.4
2016-05-24T14:44:14.577Z,17.5
2016-05-24T14:44:24.562Z,17.4
2016-05-24T14:44:34.546Z,17.5
2016-05-24T14:44:44.548Z,17.5
2016-05-24T14:44:54.532Z,17.5
2016-05-24T14:45:04.517Z,17.5
2016-05-24T14:45:15.314Z,17.4
2016-05-24T14:45:24.767Z,17.4
2016-05-24T14:45:34.345Z,17.4
2016-05-24T14:45:44.598Z,17.4
2016-05-24T14:45:54.692Z,17.5
2016-05-24T14:46:04.567Z,17.5
2016-05-24T14:46:14.442Z,17.3
2016-05-24T14:46:24.285Z,17.4
2016-05-24T14:46:34.410Z,17.4
2016-05-24T14:46:44.412Z,17.3
2016-05-24T14:46:54.412Z,17.2
2016-05-24T14:47:04.397Z,17.2
2016-05-24T14:47:14.225Z,17.2
2016-05-24T14:47:24.365Z,17.1
2016-05-24T14:47:34.209Z,17.1
2016-05-24T14:47:44.353Z,17.1
2016-05-24T14:47:54.337Z,17.1
2016-05-24T14:48:04.322Z,17.1
2016-05-24T14:48:14.322Z,17.1
2016-05-24T14:48:24.306Z,17.1
2016-05-24T14:48:34.134Z,17
2016-05-24T14:48:44.278Z,17
2016-05-24T14:48:54.262Z,17
2016-05-24T14:49:04.262Z,17
2016-05-24T14:49:14.246Z,17
2016-05-24T14:49:24.231Z,17
2016-05-24T14:49:34.231Z,17.1
2016-05-24T14:49:44.218Z,17.1
2016-05-24T14:49:54.203Z,16.9
2016-05-24T14:50:04.187Z,16.9
2016-05-24T14:50:14.187Z,16.9
2016-05-24T14:50:24.171Z,16.9
2016-05-24T14:50:34.156Z,17
2016-05-24T14:50:44.142Z,16.9
2016-05-24T14:50:54.142Z,16.9
2016-05-24T14:51:04.126Z,17
2016-05-24T14:51:14.111Z,16.9
2016-05-24T14:51:24.111Z,16.9
2016-05-24T14:51:34.095Z,17
2016-05-24T14:51:44.083Z,16.9
2016-05-24T14:51:54.067Z,16.9
2016-05-24T14:52:03.911Z,17
2016-05-24T14:52:14.051Z,16.9
2016-05-24T14:52:24.051Z,16.9
2016-05-24T14:52:34.036Z,16.9
2016-05-24T14:52:44.023Z,16.8
2016-05-24T14:52:54.007Z,16.9
2016-05-24T14:53:03.992Z,16.9
2016-05-24T14:53:13.976Z,16.8
2016-05-24T14:53:23.976Z,17
2016-05-24T14:53:33.976Z,16.8
2016-05-24T14:53:43.947Z,16.9
2016-05-24T14:53:53.947Z,16.9
2016-05-24T14:54:03.791Z,17
2016-05-24T14:54:13.916Z,16.9
2016-05-24T14:54:23.759Z,17
2016-05-24T14:54:33.900Z,17.1
2016-05-24T14:54:43.887Z,16.9
2016-05-24T14:54:53.887Z,16.9
2016-05-24T14:55:03.856Z,16.9
2016-05-24T14:55:13.856Z,17.1
2016-05-24T14:55:23.841Z,16.9
2016-05-24T14:55:33.841Z,17
2016-05-24T14:55:43.827Z,17
2016-05-24T14:55:53.811Z,17.1
2016-05-24T14:56:03.655Z,17
2016-05-24T14:56:13.639Z,17.1
2016-05-24T14:56:23.764Z,17.1
2016-05-24T14:56:33.780Z,17.1
2016-05-24T14:56:43.612Z,17.2
2016-05-24T14:56:53.753Z,17.2
2016-05-24T14:57:03.737Z,17
2016-05-24T14:57:13.722Z,17
2016-05-24T14:57:23.706Z,17
2016-05-24T14:57:33.706Z,17.1
2016-05-24T14:57:43.692Z,17.1
2016-05-24T14:57:53.677Z,17
2016-05-24T14:58:03.661Z,17
2016-05-24T14:58:13.661Z,16.8
2016-05-24T14:58:23.505Z,17
2016-05-24T14:58:33.630Z,17
2016-05-24T14:58:43.617Z,17
2016-05-24T14:58:53.617Z,17.1
2016-05-24T14:59:03.602Z,16.9
2016-05-24T14:59:13.586Z,17
2016-05-24T14:59:23.570Z,17
2016-05-24T14:59:33.570Z,16.9
2016-05-24T14:59:43.557Z,17
2016-05-24T14:59:53.541Z,17
2016-05-24T15:00:03.400Z,16.9
2016-05-24T15:00:13.525Z,16.9
2016-05-24T15:00:23.697Z,17
2016-05-24T15:00:33.369Z,16.8
2016-05-24T15:00:43.825Z,16.9
2016-05-24T15:00:53.482Z,16.9
2016-05-24T15:01:03.560Z,16.9
2016-05-24T15:01:13.310Z,16.8
2016-05-24T15:01:23.450Z,16.9
2016-05-24T15:01:33.450Z,16.8
2016-05-24T15:01:43.422Z,16.8
2016-05-24T15:01:53.422Z,16.9
2016-05-24T15:02:03.406Z,16.9
2016-05-24T15:02:13.391Z,16.7
2016-05-24T15:02:23.375Z,16.8
2016-05-24T15:02:33.375Z,16.8
2016-05-24T15:02:43.206Z,16.8
2016-05-24T15:02:53.363Z,16.8
2016-05-24T15:03:03.331Z,16.7
2016-05-24T15:03:13.331Z,16.7
2016-05-24T15:03:23.316Z,16.7
2016-05-24T15:03:33.300Z,16.8
2016-05-24T15:03:43.146Z,16.7
2016-05-24T15:03:53.286Z,16.7
2016-05-24T15:04:03.271Z,16.8
2016-05-24T15:04:13.255Z,16.7
2016-05-24T15:04:23.099Z,16.7
2016-05-24T15:04:33.240Z,16.8
2016-05-24T15:04:43.071Z,16.8
2016-05-24T15:04:53.071Z,16.8
2016-05-24T15:05:03.196Z,16.7
2016-05-24T15:05:13.196Z,16.7
2016-05-24T15:05:23.180Z,16.8
2016-05-24T15:05:33.180Z,16.8
2016-05-24T15:05:43.166Z,16.8
2016-05-24T15:05:53.151Z,16.7
2016-05-24T15:06:03.135Z,16.6
2016-05-24T15:06:13.135Z,16.6
2016-05-24T15:06:23.120Z,16.5
2016-05-24T15:06:32.963Z,16.5
2016-05-24T15:06:42.951Z,16.5
2016-05-24T15:06:53.076Z,16.5
2016-05-24T15:07:03.076Z,16.4
2016-05-24T15:07:13.060Z,16.6
2016-05-24T15:07:23.044Z,16.5
2016-05-24T15:07:33.044Z,16.5
2016-05-24T15:07:43.032Z,16.5
2016-05-24T15:07:53.016Z,16.5
2016-05-24T15:08:03.016Z,16.5
2016-05-24T15:08:12.844Z,16.5
2016-05-24T15:08:22.985Z,16.4
2016-05-24T15:08:32.969Z,16.5
2016-05-24T15:08:42.971Z,16.5
2016-05-24T15:08:52.956Z,16.5
2016-05-24T15:09:02.940Z,16.6
2016-05-24T15:09:12.924Z,16.4
2016-05-24T15:09:22.753Z,16.5
2016-05-24T15:09:32.753Z,16.4
2016-05-24T15:09:42.897Z,16.4
2016-05-24T15:09:52.897Z,16.4
2016-05-24T15:10:02.882Z,16.4
2016-05-24T15:10:12.866Z,16.4
2016-05-24T15:10:22.850Z,16.3
2016-05-24T15:10:32.835Z,16.5
2016-05-24T15:10:42.837Z,16.5
2016-05-24T15:10:52.821Z,16.4
2016-05-24T15:11:02.805Z,16.3
2016-05-24T15:11:12.790Z,16.3
2016-05-24T15:11:22.634Z,16.3
2016-05-24T15:11:32.790Z,16.4
2016-05-24T15:11:42.605Z,16.4
2016-05-24T15:11:52.762Z,16.4
2016-05-24T15:12:02.746Z,16.5
2016-05-24T15:12:12.730Z,16.4
2016-05-24T15:12:22.746Z,16.4
2016-05-24T15:12:32.558Z,16.4
2016-05-24T15:12:42.561Z,16.4
2016-05-24T15:12:52.686Z,16.4
2016-05-24T15:13:02.686Z,16.4
2016-05-24T15:13:12.671Z,16.4
2016-05-24T15:13:22.671Z,16.4
2016-05-24T15:13:32.640Z,16.5
2016-05-24T15:13:42.626Z,16.3
2016-05-24T15:13:52.626Z,16.4
2016-05-24T15:14:02.610Z,16.4
2016-05-24T15:14:12.595Z,16.4
2016-05-24T15:14:22.595Z,16.5
2016-05-24T15:14:32.579Z,16.4
2016-05-24T15:14:42.566Z,16.4
2016-05-24T15:14:52.551Z,16.5
2016-05-24T15:15:02.395Z,16.4
2016-05-24T15:15:12.832Z,16.3
2016-05-24T15:15:22.520Z,16.3
2016-05-24T15:15:32.520Z,16.4
2016-05-24T15:15:42.757Z,16.3
2016-05-24T15:15:53.148Z,16.3
2016-05-24T15:16:03.210Z,16.4
2016-05-24T15:16:12.319Z,16.3
2016-05-24T15:16:22.460Z,16.3
2016-05-24T15:16:32.444Z,16.4
2016-05-24T15:16:42.431Z,16.4
2016-05-24T15:16:52.431Z,16.3
2016-05-24T15:17:02.415Z,16.3
2016-05-24T15:17:12.400Z,16.4
2016-05-24T15:17:22.243Z,16.4
2016-05-24T15:17:32.384Z,16.4
2016-05-24T15:17:42.371Z,16.3
2016-05-24T15:17:52.356Z,16.4
2016-05-24T15:18:02.340Z,16.4
2016-05-24T15:18:12.340Z,16.5
2016-05-24T15:18:22.324Z,16.4
2016-05-24T15:18:32.153Z,16.5
2016-05-24T15:18:42.295Z,16.4
2016-05-24T15:18:52.139Z,16.5
2016-05-24T15:19:02.123Z,16.4
2016-05-24T15:19:12.264Z,16.5
2016-05-24T15:19:22.248Z,16.4
2016-05-24T15:19:32.092Z,16.5
2016-05-24T15:19:42.236Z,16.5
2016-05-24T15:19:52.220Z,16.4
2016-05-24T15:20:02.220Z,16.5
2016-05-24T15:20:12.204Z,16.5
2016-05-24T15:20:22.220Z,16.6
2016-05-24T15:20:32.189Z,16.6
2016-05-24T15:20:42.161Z,16.5
2016-05-24T15:20:52.161Z,16.6
2016-05-24T15:21:01.989Z,16.6
2016-05-24T15:21:12.129Z,16.5
2016-05-24T15:21:22.129Z,16.5
2016-05-24T15:21:32.114Z,16.5
2016-05-24T15:21:42.101Z,16.7
2016-05-24T15:21:52.101Z,16.6
2016-05-24T15:22:02.085Z,16.5
2016-05-24T15:22:12.070Z,16.6
2016-05-24T15:22:22.054Z,16.6
2016-05-24T15:22:32.039Z,16.6
2016-05-24T15:22:42.041Z,16.6
2016-05-24T15:22:52.025Z,16.6
2016-05-24T15:23:02.009Z,16.6
2016-05-24T15:23:12.009Z,16.7
2016-05-24T15:23:21.994Z,16.6
2016-05-24T15:23:31.978Z,16.6
2016-05-24T15:23:41.965Z,16.6
2016-05-24T15:23:51.965Z,16.6
2016-05-24T15:24:01.965Z,16.6
2016-05-24T15:24:11.934Z,16.5
2016-05-24T15:24:21.778Z,16.6
2016-05-24T15:24:31.919Z,16.5
2016-05-24T15:24:41.905Z,16.5
2016-05-24T15:24:51.889Z,16.5
2016-05-24T15:25:01.874Z,16.7
2016-05-24T15:25:11.717Z,16.5
2016-05-24T15:25:21.858Z,16.6
2016-05-24T15:25:31.842Z,16.7
2016-05-24T15:25:41.845Z,16.7
2016-05-24T15:25:51.830Z,16.7
2016-05-24T15:26:01.658Z,16.7
2016-05-24T15:26:11.658Z,16.6
2016-05-24T15:26:21.783Z,16.6
2016-05-24T15:26:31.783Z,16.7
2016-05-24T15:26:41.611Z,16.7
2016-05-24T15:26:51.771Z,16.8
2016-05-24T15:27:01.756Z,16.8
2016-05-24T15:27:11.740Z,16.7
2016-05-24T15:27:21.724Z,16.8
2016-05-24T15:27:31.709Z,16.8
2016-05-24T15:27:41.709Z,16.6
2016-05-24T15:27:51.694Z,16.7
2016-05-24T15:28:01.679Z,16.7
2016-05-24T15:28:11.679Z,16.7
2016-05-24T15:28:21.663Z,16.7
2016-05-24T15:28:31.491Z,16.6
2016-05-24T15:28:41.647Z,16.6
2016-05-24T15:28:51.635Z,16.7
2016-05-24T15:29:01.619Z,16.8
2016-05-24T15:29:11.463Z,16.7
2016-05-24T15:29:21.588Z,16.7
2016-05-24T15:29:31.603Z,17
2016-05-24T15:29:41.557Z,16.9
2016-05-24T15:29:51.560Z,16.8
2016-05-24T15:30:01.560Z,16.9
2016-05-24T15:30:11.966Z,16.8
2016-05-24T15:30:21.560Z,16.9
2016-05-24T15:30:32.075Z,16.9
2016-05-24T15:30:41.859Z,16.8
2016-05-24T15:30:51.516Z,16.8
2016-05-24T15:31:01.328Z,16.9
2016-05-24T15:31:11.578Z,16.8
2016-05-24T15:31:21.469Z,16.7
2016-05-24T15:31:31.453Z,16.8
2016-05-24T15:31:41.438Z,16.8
2016-05-24T15:31:51.424Z,16.8
2016-05-24T15:32:01.424Z,16.8
2016-05-24T15:32:11.408Z,16.8
2016-05-24T15:32:21.393Z,16.8
2016-05-24T15:32:31.377Z,16.7
2016-05-24T15:32:41.377Z,16.8
2016-05-24T15:32:51.364Z,16.9
2016-05-24T15:33:01.364Z,16.7
2016-05-24T15:33:11.349Z,16.8
2016-05-24T15:33:21.333Z,16.8
2016-05-24T15:33:31.333Z,16.8
2016-05-24T15:33:41.318Z,16.8
2016-05-24T15:33:51.305Z,16.9
2016-05-24T15:34:01.289Z,16.8
2016-05-24T15:34:11.274Z,16.8
2016-05-24T15:34:21.274Z,16.8
2016-05-24T15:34:31.258Z,16.8
2016-05-24T15:34:41.242Z,16.8
2016-05-24T15:34:51.244Z,16.8
2016-05-24T15:35:01.213Z,16.8
2016-05-24T15:35:11.057Z,16.8
2016-05-24T15:35:21.198Z,16.7
2016-05-24T15:35:31.182Z,16.9
2016-05-24T15:35:41.166Z,16.9
2016-05-24T15:35:51.169Z,16.8
2016-05-24T15:36:01.154Z,17
2016-05-24T15:36:11.138Z,16.9
2016-05-24T15:36:21.138Z,16.9
2016-05-24T15:36:31.122Z,16.9
2016-05-24T15:36:41.107Z,16.9
2016-05-24T15:36:51.094Z,17
2016-05-24T15:37:00.938Z,16.9
2016-05-24T15:37:11.079Z,17
2016-05-24T15:37:21.063Z,16.9
2016-05-24T15:37:31.047Z,16.9
2016-05-24T15:37:41.047Z,17
2016-05-24T15:37:51.034Z,16.8
2016-05-24T15:38:01.190Z,16.9
2016-05-24T15:38:11.002Z,17
2016-05-24T15:38:21.002Z,16.9
2016-05-24T15:38:30.831Z,17
2016-05-24T15:38:40.815Z,16.9
2016-05-24T15:38:50.802Z,16.9
2016-05-24T15:39:00.959Z,17
2016-05-24T15:39:10.943Z,16.8
2016-05-24T15:39:20.771Z,16.9
2016-05-24T15:39:30.927Z,16.9
2016-05-24T15:39:40.912Z,16.9
2016-05-24T15:39:50.899Z,16.8
2016-05-24T15:40:00.883Z,16.9
2016-05-24T15:40:10.883Z,16.8
2016-05-24T15:40:20.868Z,16.9
2016-05-24T15:40:30.852Z,16.9
2016-05-24T15:40:40.852Z,16.8
2016-05-24T15:40:50.824Z,16.8
2016-05-24T15:41:00.824Z,16.8
2016-05-24T15:41:10.808Z,16.9
2016-05-24T15:41:20.793Z,17
2016-05-24T15:41:30.793Z,16.8